createdAt,value
2018-07-05T00:01:52.058Z,99.90
2018-07-05T00:04:32.912Z,99.90
2018-07-05T00:07:13.488Z,99.90
2018-07-05T00:09:53.763Z,99.90
2018-07-05T00:12:34.228Z,99.90
2018-07-05T00:15:15.061Z,99.90
2018-07-05T00:17:59.331Z,99.90
2018-07-05T00:20:46.707Z,99.90
2018-07-05T00:23:27.196Z,99.90
2018-07-05T00:26:07.615Z,99.90
2018-07-05T00:28:48.335Z,99.90
2018-07-05T00:31:28.911Z,99.90
2018-07-05T00:45:36.992Z,99.90
2018-07-05T00:54:00.304Z,99.90
2018-07-05T00:56:41.666Z,99.90
2018-07-05T00:59:22.089Z,99.90
2018-07-05T01:02:02.739Z,99.90
2018-07-05T01:04:43.171Z,99.90
2018-07-05T01:07:24.817Z,99.90
2018-07-05T01:10:06.440Z,99.90
2018-07-05T01:12:47.951Z,99.90
2018-07-05T01:15:28.255Z,99.90
2018-07-05T01:18:08.739Z,99.90
2018-07-05T01:20:49.402Z,99.90
2018-07-05T01:23:29.987Z,99.90
2018-07-05T01:26:10.752Z,99.90
2018-07-05T01:28:51.163Z,99.90
2018-07-05T01:31:32.662Z,99.90
2018-07-05T01:34:13.166Z,99.90
2018-07-05T01:36:53.786Z,99.90
2018-07-05T01:39:34.700Z,99.90
2018-07-05T01:42:17.219Z,99.90
2018-07-05T01:45:02.049Z,99.90
2018-07-05T01:47:42.515Z,99.90
2018-07-05T01:50:22.975Z,99.90
2018-07-05T01:53:03.599Z,99.90
2018-07-05T01:55:45.760Z,99.90
2018-07-05T01:58:28.155Z,99.90
2018-07-05T02:01:08.424Z,99.90
2018-07-05T02:03:49.097Z,99.90
2018-07-05T02:06:30.276Z,99.90
2018-07-05T02:09:10.629Z,99.90
2018-07-05T02:14:26.813Z,99.90
2018-07-05T02:17:08.143Z,99.90
2018-07-05T02:19:50.966Z,99.90
2018-07-05T02:22:33.563Z,99.90
2018-07-05T02:25:21.335Z,99.90
2018-07-05T02:28:02.321Z,99.90
2018-07-05T02:30:42.903Z,99.80
2018-07-05T02:33:24.787Z,99.90
2018-07-05T02:36:05.534Z,99.90
2018-07-05T02:38:51.313Z,99.90
2018-07-05T02:41:33.158Z,99.90
2018-07-05T02:44:13.725Z,99.90
2018-07-05T02:46:54.269Z,99.90
2018-07-05T02:49:34.958Z,99.70
2018-07-05T02:52:17.332Z,99.70
2018-07-05T02:54:57.765Z,99.60
2018-07-05T02:57:38.298Z,99.30
2018-07-05T03:00:18.920Z,99.10
2018-07-05T03:02:59.343Z,98.90
2018-07-05T03:05:46.649Z,98.70
2018-07-05T03:08:27.211Z,98.20
2018-07-05T03:11:08.473Z,97.90
2018-07-05T03:13:54.886Z,98.00
2018-07-05T03:16:35.367Z,97.40
2018-07-05T03:19:17.001Z,96.50
2018-07-05T03:21:57.713Z,96.50
2018-07-05T03:24:38.628Z,96.10
2018-07-05T03:27:19.239Z,96.40
2018-07-05T03:30:04.589Z,96.50
2018-07-05T03:32:45.815Z,96.20
2018-07-05T03:35:26.347Z,96.70
2018-07-05T03:38:06.952Z,97.00
2018-07-05T03:40:49.220Z,97.00
2018-07-05T03:43:30.096Z,97.10
2018-07-05T03:46:10.611Z,97.50
2018-07-05T03:48:51.508Z,97.20
2018-07-05T03:51:38.317Z,97.20
2018-07-05T03:54:18.647Z,97.20
2018-07-05T03:56:59.222Z,96.80
2018-07-05T04:02:28.438Z,96.70
2018-07-05T04:05:09.036Z,96.10
2018-07-05T04:07:49.709Z,96.10
2018-07-05T04:10:30.358Z,96.00
2018-07-05T04:13:11.763Z,96.40
2018-07-05T04:15:54.152Z,95.90
2018-07-05T04:18:34.524Z,96.00
2018-07-05T04:21:15.191Z,95.70
2018-07-05T04:23:55.877Z,95.70
2018-07-05T04:26:42.329Z,95.30
2018-07-05T04:29:22.996Z,95.80
2018-07-05T04:32:04.390Z,95.70
2018-07-05T04:34:51.278Z,95.70
2018-07-05T04:37:32.093Z,95.90
2018-07-05T04:40:12.865Z,95.70
2018-07-05T04:42:53.446Z,96.10
2018-07-05T04:45:33.959Z,96.20
2018-07-05T04:48:14.978Z,96.20
2018-07-05T04:50:55.389Z,96.10
2018-07-05T04:53:36.108Z,95.90
2018-07-05T04:56:18.446Z,95.40
2018-07-05T04:58:59.801Z,95.40
2018-07-05T05:01:44.343Z,95.60
2018-07-05T05:04:25.869Z,95.50
2018-07-05T05:07:06.643Z,95.50
2018-07-05T05:09:47.143Z,95.40
2018-07-05T05:12:27.745Z,94.90
2018-07-05T05:15:08.603Z,94.80
2018-07-05T05:17:54.408Z,94.70
2018-07-05T05:20:35.018Z,94.80
2018-07-05T05:23:16.270Z,94.70
2018-07-05T05:25:57.702Z,94.70
2018-07-05T05:31:26.905Z,94.60
2018-07-05T05:34:07.401Z,94.70
2018-07-05T05:36:48.035Z,94.50
2018-07-05T05:39:28.502Z,94.50
2018-07-05T05:42:09.004Z,94.60
2018-07-05T05:44:49.566Z,94.70
2018-07-05T05:47:33.244Z,94.40
2018-07-05T05:50:14.749Z,94.50
2018-07-05T06:04:31.836Z,94.20
2018-07-05T06:35:49.908Z,96.50
2018-07-05T06:38:30.350Z,98.10
2018-07-05T06:41:10.902Z,98.50
2018-07-05T06:43:51.957Z,99.90
2018-07-05T06:46:32.526Z,99.80
2018-07-05T06:49:13.605Z,99.90
2018-07-05T06:51:54.216Z,99.90
2018-07-05T06:54:34.616Z,99.90
2018-07-05T06:57:15.319Z,99.90
2018-07-05T06:59:55.829Z,99.90
2018-07-05T07:02:36.325Z,99.90
2018-07-05T07:05:17.865Z,99.90
2018-07-05T07:07:58.452Z,99.90
2018-07-05T07:10:39.248Z,99.90
2018-07-05T07:13:19.709Z,99.90
2018-07-05T07:16:00.428Z,99.90
2018-07-05T07:18:41.037Z,99.90
2018-07-05T07:21:21.826Z,99.90
2018-07-05T07:24:02.561Z,99.90
2018-07-05T07:26:43.072Z,99.90
2018-07-05T07:29:23.649Z,99.90
2018-07-05T07:32:04.219Z,99.90
2018-07-05T07:34:44.653Z,99.90
2018-07-05T07:37:25.233Z,99.90
2018-07-05T07:42:27.740Z,99.90
2018-07-05T07:44:55.871Z,99.90
2018-07-05T07:47:24.024Z,99.90
2018-07-05T07:49:52.228Z,99.90
2018-07-05T07:52:20.395Z,99.90
2018-07-05T07:54:49.409Z,99.90
2018-07-05T07:57:17.546Z,99.90
2018-07-05T07:59:46.546Z,99.90
2018-07-05T08:02:15.041Z,99.90
2018-07-05T08:04:43.798Z,99.90
2018-07-05T08:07:12.621Z,99.90
2018-07-05T08:09:41.061Z,99.90
2018-07-05T08:12:09.600Z,99.90
2018-07-05T08:14:38.438Z,99.90
2018-07-05T08:17:06.581Z,99.90
2018-07-05T08:19:34.712Z,99.90
2018-07-05T08:22:02.895Z,99.90
2018-07-05T08:24:31.158Z,99.90
2018-07-05T08:26:59.374Z,99.90
2018-07-05T08:29:30.289Z,99.90
2018-07-05T08:31:58.481Z,99.90
2018-07-05T08:34:26.620Z,99.90
2018-07-05T08:36:54.753Z,99.90
2018-07-05T08:39:22.916Z,99.90
2018-07-05T08:41:51.094Z,99.90
2018-07-05T08:44:19.841Z,99.90
2018-07-05T08:46:47.931Z,99.90
2018-07-05T08:49:16.077Z,99.90
2018-07-05T08:51:44.250Z,99.90
2018-07-05T08:54:12.540Z,99.50
2018-07-05T08:56:40.674Z,99.30
2018-07-05T08:59:08.881Z,99.10
2018-07-05T09:01:37.040Z,98.10
2018-07-05T09:06:33.984Z,95.60
2018-07-05T09:09:02.176Z,95.20
2018-07-05T09:11:30.342Z,94.50
2018-07-05T09:13:58.536Z,93.80
2018-07-05T09:16:26.768Z,93.50
2018-07-05T09:18:54.969Z,93.30
2018-07-05T09:21:23.090Z,92.60
2018-07-05T09:23:51.234Z,91.70
2018-07-05T09:26:19.361Z,90.90
2018-07-05T09:28:47.503Z,92.10
2018-07-05T09:31:15.710Z,90.60
2018-07-05T09:33:43.740Z,88.40
2018-07-05T09:36:11.862Z,88.60
2018-07-05T09:38:40.630Z,87.20
2018-07-05T09:41:08.793Z,83.80
2018-07-05T09:43:36.885Z,82.30
2018-07-05T09:46:05.187Z,81.00
2018-07-05T09:48:33.411Z,81.00
2018-07-05T09:51:01.513Z,79.20
2018-07-05T09:53:29.612Z,78.70
2018-07-05T09:55:57.726Z,77.90
2018-07-05T09:58:25.961Z,76.90
2018-07-05T10:00:54.082Z,76.60
2018-07-05T10:03:22.886Z,76.70
2018-07-05T10:05:51.015Z,80.50
2018-07-05T10:08:19.499Z,76.50
2018-07-05T10:10:47.606Z,75.10
2018-07-05T10:13:15.825Z,74.40
2018-07-05T10:15:43.838Z,76.90
2018-07-05T10:20:40.183Z,75.60
2018-07-05T10:23:08.311Z,73.00
2018-07-05T10:25:36.512Z,73.10
2018-07-05T10:28:04.653Z,72.40
2018-07-05T10:30:44.936Z,74.40
2018-07-05T10:33:25.465Z,72.30
2018-07-05T10:35:54.338Z,70.90
2018-07-05T10:38:22.540Z,71.10
2018-07-05T10:41:02.970Z,71.00
2018-07-05T10:43:43.432Z,71.30
2018-07-05T10:46:23.961Z,71.20
2018-07-05T10:49:04.537Z,71.20
2018-07-05T10:51:45.167Z,70.50
2018-07-05T10:54:25.585Z,70.30
2018-07-05T10:57:06.089Z,70.00
2018-07-05T10:59:47.264Z,69.50
2018-07-05T11:02:27.732Z,70.70
2018-07-05T11:05:08.218Z,70.70
2018-07-05T11:07:48.926Z,70.20
2018-07-05T11:10:29.362Z,69.40
2018-07-05T11:13:09.907Z,68.70
2018-07-05T11:15:50.892Z,68.20
2018-07-05T11:18:31.346Z,68.90
2018-07-05T11:23:46.170Z,66.20
2018-07-05T11:26:26.673Z,65.40
2018-07-05T11:29:07.015Z,65.30
2018-07-05T11:31:47.471Z,67.20
2018-07-05T11:34:27.946Z,66.30
2018-07-05T11:37:08.495Z,67.40
2018-07-05T11:39:49.093Z,71.80
2018-07-05T11:42:29.537Z,70.00
2018-07-05T11:45:10.066Z,70.70
2018-07-05T11:47:50.491Z,71.90
2018-07-05T11:50:30.984Z,70.60
2018-07-05T11:53:12.193Z,67.60
2018-07-05T11:55:52.717Z,68.00
2018-07-05T11:58:33.337Z,67.70
2018-07-05T12:01:13.869Z,69.70
2018-07-05T12:03:54.372Z,67.10
2018-07-05T12:06:34.991Z,68.10
2018-07-05T12:09:15.434Z,71.00
2018-07-05T12:11:55.905Z,69.70
2018-07-05T12:14:36.509Z,69.50
2018-07-05T12:17:17.119Z,71.80
2018-07-05T12:19:57.711Z,73.50
2018-07-05T12:22:38.129Z,72.70
2018-07-05T12:25:18.459Z,73.60
2018-07-05T12:27:58.940Z,71.80
2018-07-05T12:30:39.510Z,70.90
2018-07-05T12:33:20.169Z,71.20
2018-07-05T12:36:00.841Z,71.10
2018-07-05T12:38:41.288Z,69.70
2018-07-05T12:41:21.804Z,67.30
2018-07-05T12:44:02.418Z,70.50
2018-07-05T12:46:42.796Z,70.40
2018-07-05T12:49:23.295Z,68.90
2018-07-05T12:52:03.674Z,66.30
2018-07-05T12:54:44.249Z,65.70
2018-07-05T12:57:24.817Z,66.00
2018-07-05T13:00:05.253Z,64.80
2018-07-05T13:02:45.805Z,67.00
2018-07-05T13:05:27.040Z,65.80
2018-07-05T13:08:07.624Z,67.40
2018-07-05T13:10:48.086Z,64.70
2018-07-05T13:13:28.599Z,60.00
2018-07-05T13:16:09.296Z,60.40
2018-07-05T13:18:51.892Z,60.20
2018-07-05T13:21:32.330Z,61.50
2018-07-05T13:24:12.864Z,61.60
2018-07-05T13:26:53.613Z,63.50
2018-07-05T13:29:40.494Z,63.80
2018-07-05T13:32:21.687Z,64.20
2018-07-05T13:35:02.704Z,62.30
2018-07-05T13:37:43.858Z,67.10
2018-07-05T13:40:24.317Z,65.50
2018-07-05T13:43:04.758Z,65.20
2018-07-05T13:45:50.058Z,66.90
2018-07-05T13:48:31.331Z,64.10
2018-07-05T13:51:11.907Z,68.00
2018-07-05T13:53:52.333Z,67.60
2018-07-05T13:56:32.956Z,65.40
2018-07-05T13:59:13.523Z,66.20
2018-07-05T14:01:54.099Z,66.80
2018-07-05T14:04:35.021Z,66.40
2018-07-05T14:07:15.663Z,66.60
2018-07-05T14:09:56.121Z,68.30
2018-07-05T14:12:36.737Z,69.10
2018-07-05T14:15:17.077Z,67.10
2018-07-05T14:17:57.671Z,68.10
2018-07-05T14:20:38.122Z,67.40
2018-07-05T14:23:18.780Z,67.20
2018-07-05T14:25:59.304Z,69.00
2018-07-05T14:28:39.807Z,69.90
2018-07-05T14:31:20.282Z,69.00
2018-07-05T14:34:00.735Z,67.60
2018-07-05T14:36:45.384Z,69.30
2018-07-05T14:42:11.906Z,64.40
2018-07-05T14:44:52.328Z,65.20
2018-07-05T14:47:33.214Z,64.90
2018-07-05T14:50:13.821Z,64.40
2018-07-05T14:52:54.993Z,62.30
2018-07-05T14:55:35.569Z,66.20
2018-07-05T14:58:17.237Z,66.40
2018-07-05T15:00:57.619Z,65.90
2018-07-05T15:03:39.901Z,64.80
2018-07-05T15:06:20.408Z,66.40
2018-07-05T15:09:00.753Z,67.30
2018-07-05T15:11:41.326Z,66.20
2018-07-05T15:14:22.084Z,67.90
2018-07-05T15:17:02.679Z,68.20
2018-07-05T15:19:43.267Z,70.50
2018-07-05T15:22:23.760Z,70.20
2018-07-05T15:25:08.076Z,69.50
2018-07-05T15:27:48.661Z,70.10
2018-07-05T15:30:29.874Z,69.80
2018-07-05T15:33:10.330Z,69.80
2018-07-05T15:35:51.290Z,70.20
2018-07-05T15:38:31.864Z,71.60
2018-07-05T15:41:12.508Z,72.10
2018-07-05T15:43:53.065Z,74.20
2018-07-05T15:46:33.414Z,72.50
2018-07-05T15:49:15.819Z,72.90
2018-07-05T15:51:56.175Z,73.30
2018-07-05T15:54:36.787Z,73.40
2018-07-05T15:57:17.264Z,73.40
2018-07-05T15:59:58.308Z,74.80
2018-07-05T16:02:38.734Z,74.00
2018-07-05T16:05:19.447Z,72.00
2018-07-05T16:08:00.072Z,69.40
2018-07-05T16:10:40.600Z,72.20
2018-07-05T16:13:23.688Z,72.50
2018-07-05T16:16:04.220Z,72.50
2018-07-05T16:18:48.508Z,69.80
2018-07-05T16:21:29.175Z,71.60
2018-07-05T16:24:10.404Z,69.60
2018-07-05T16:26:50.843Z,69.20
2018-07-05T16:29:31.235Z,67.30
2018-07-05T16:32:12.705Z,67.90
2018-07-05T16:34:53.144Z,69.80
2018-07-05T16:37:33.778Z,70.20
2018-07-05T16:40:14.326Z,69.20
2018-07-05T16:42:54.851Z,71.00
2018-07-05T16:45:39.750Z,70.10
2018-07-05T16:48:20.262Z,68.50
2018-07-05T16:51:00.743Z,70.50
2018-07-05T16:53:41.471Z,69.30
2018-07-05T16:56:21.831Z,70.10
2018-07-05T16:59:02.155Z,70.60
2018-07-05T17:01:42.729Z,70.60
2018-07-05T17:04:23.282Z,70.00
2018-07-05T17:07:03.905Z,71.30
2018-07-05T17:09:45.682Z,71.40
2018-07-05T17:12:26.284Z,71.20
2018-07-05T17:15:06.897Z,70.70
2018-07-05T17:17:51.342Z,71.20
2018-07-05T17:20:32.187Z,71.80
2018-07-05T17:23:12.966Z,72.40
2018-07-05T17:25:53.497Z,72.20
2018-07-05T17:28:33.971Z,69.90
2018-07-05T17:31:14.361Z,71.90
2018-07-05T17:33:54.920Z,70.60
2018-07-05T17:36:36.050Z,71.20
2018-07-05T17:39:16.535Z,71.30
2018-07-05T17:41:57.736Z,71.00
2018-07-05T17:44:38.632Z,71.80
2018-07-05T17:47:19.115Z,73.10
2018-07-05T17:49:59.667Z,72.20
2018-07-05T17:52:40.165Z,73.30
2018-07-05T17:55:21.152Z,73.40
2018-07-05T17:58:01.588Z,72.90
2018-07-05T18:00:42.938Z,72.50
2018-07-05T18:03:23.864Z,72.60
2018-07-05T18:06:04.404Z,73.70
2018-07-05T18:08:45.984Z,75.50
2018-07-05T18:11:28.316Z,75.10
2018-07-05T18:14:09.511Z,75.50
2018-07-05T18:16:50.761Z,76.20
2018-07-05T18:19:31.477Z,76.60
2018-07-05T18:24:47.237Z,76.50
2018-07-05T18:27:27.992Z,77.50
2018-07-05T18:30:08.609Z,77.40
2018-07-05T18:32:51.600Z,78.00
2018-07-05T18:35:33.870Z,78.70
2018-07-05T18:38:15.710Z,78.70
2018-07-05T18:40:56.592Z,78.60
2018-07-05T18:43:37.113Z,79.90
2018-07-05T18:46:19.117Z,80.20
2018-07-05T18:49:01.642Z,81.30
2018-07-05T18:51:42.774Z,81.80
2018-07-05T18:54:23.678Z,82.00
2018-07-05T18:57:04.766Z,80.50
2018-07-05T18:59:45.849Z,81.70
2018-07-05T19:02:27.411Z,81.70
2018-07-05T19:05:07.884Z,82.30
2018-07-05T19:07:48.433Z,82.40
2018-07-05T19:10:29.155Z,82.20
2018-07-05T19:13:09.716Z,83.10
2018-07-05T19:15:51.678Z,82.70
2018-07-05T19:18:32.879Z,82.90
2018-07-05T19:21:13.485Z,83.00
2018-07-05T19:23:54.006Z,82.60
2018-07-05T19:26:35.403Z,83.20
2018-07-05T19:29:15.821Z,83.70
2018-07-05T19:31:56.462Z,83.10
2018-07-05T19:34:37.048Z,83.80
2018-07-05T19:37:18.111Z,83.80
2018-07-05T19:39:58.673Z,83.20
2018-07-05T19:42:39.312Z,83.50
2018-07-05T19:47:54.260Z,84.30
2018-07-05T19:50:34.690Z,83.30
2018-07-05T19:53:15.261Z,84.50
2018-07-05T19:55:55.699Z,85.20
2018-07-05T19:58:36.667Z,84.90
2018-07-05T20:01:17.508Z,85.90
2018-07-05T20:06:32.352Z,85.50
2018-07-05T20:09:13.028Z,85.80
2018-07-05T20:11:58.820Z,85.80
2018-07-05T20:17:15.053Z,86.40
2018-07-05T20:19:57.334Z,87.00
2018-07-05T20:22:37.831Z,87.70
2018-07-05T20:25:18.454Z,87.50
2018-07-05T20:27:59.756Z,88.10
2018-07-05T20:30:40.107Z,87.80
2018-07-05T20:33:21.849Z,89.10
2018-07-05T20:36:03.059Z,89.40
2018-07-05T20:38:43.453Z,89.20
2018-07-05T20:41:23.921Z,90.00
2018-07-05T20:44:05.273Z,90.30
2018-07-05T20:46:46.064Z,90.60
2018-07-05T20:49:26.888Z,91.10
2018-07-05T20:54:41.817Z,91.30
2018-07-05T20:57:22.416Z,92.10
2018-07-05T21:00:02.974Z,92.00
2018-07-05T21:02:44.145Z,92.40
2018-07-05T21:05:24.503Z,92.50
2018-07-05T21:08:04.950Z,92.80
2018-07-05T21:10:45.528Z,93.10
2018-07-05T21:13:28.636Z,93.10
2018-07-05T21:16:09.271Z,93.30
2018-07-05T21:18:49.896Z,93.50
2018-07-05T21:21:30.745Z,93.50
2018-07-05T21:24:11.447Z,93.70
2018-07-05T21:26:52.745Z,94.10
2018-07-05T21:29:34.074Z,94.00
2018-07-05T21:32:14.361Z,94.20
2018-07-05T21:34:54.795Z,94.60
2018-07-05T21:37:36.805Z,94.70
2018-07-05T21:40:17.384Z,95.10
2018-07-05T21:42:58.656Z,95.20
2018-07-05T21:45:39.968Z,95.50
2018-07-05T21:48:20.412Z,95.70
2018-07-05T21:51:00.952Z,96.10
2018-07-05T21:53:41.490Z,96.30
2018-07-05T21:56:22.072Z,96.10
2018-07-05T21:59:02.514Z,96.30
2018-07-05T22:01:43.160Z,96.30
2018-07-05T22:04:23.713Z,96.40
2018-07-05T22:07:04.564Z,96.40
2018-07-05T22:09:44.842Z,96.60
2018-07-05T22:12:25.638Z,96.90
2018-07-05T22:15:06.147Z,96.80
2018-07-05T22:17:52.036Z,96.80
2018-07-05T22:20:38.000Z,96.60
2018-07-05T22:23:23.615Z,96.80
2018-07-05T22:26:09.442Z,97.00
2018-07-05T22:28:55.412Z,97.40
2018-07-05T22:31:35.810Z,96.90
2018-07-05T22:34:16.392Z,97.30
2018-07-05T22:36:57.138Z,97.10
2018-07-05T22:39:37.651Z,97.20
2018-07-05T22:42:18.051Z,97.30
2018-07-05T22:44:58.466Z,97.30
2018-07-05T22:47:40.065Z,97.50
2018-07-05T22:50:20.714Z,97.50
2018-07-05T22:53:01.132Z,97.60
2018-07-05T22:55:41.711Z,97.70
2018-07-05T22:58:22.181Z,97.80
2018-07-05T23:01:02.772Z,98.10
2018-07-05T23:03:43.974Z,98.20
2018-07-05T23:06:24.491Z,98.40
2018-07-05T23:09:05.318Z,98.20
2018-07-05T23:11:50.288Z,98.40
2018-07-05T23:14:32.488Z,98.60
2018-07-05T23:17:13.000Z,99.00
2018-07-05T23:19:53.533Z,99.20
2018-07-05T23:22:34.054Z,99.30
2018-07-05T23:25:14.461Z,99.40
2018-07-05T23:27:54.855Z,99.30
2018-07-05T23:30:35.241Z,99.40
2018-07-05T23:33:15.669Z,99.50
2018-07-05T23:35:56.152Z,99.70
2018-07-05T23:38:36.582Z,99.70
2018-07-05T23:41:17.367Z,99.80
2018-07-05T23:43:57.824Z,99.90
2018-07-05T23:46:38.609Z,99.90
2018-07-05T23:49:19.035Z,99.90
2018-07-05T23:51:59.461Z,99.90
2018-07-05T23:54:39.819Z,99.90
2018-07-05T23:59:54.520Z,99.90
